Time;durP1;ratioP1;P1;durP2;ratioP2;P2;SDS_P1;SDS_P2;PMS_P1;PMS_P2;Temp;Humidity;BMP_temperature;BMP_pressure;BME280_temperature;BME280_humidity;BME280_pressure;Samples;Min_cycle;Max_cycle;Signal;HPM_P1;HPM_P2
2022/10/11 00:02:20;;;;;;;12.15;2.90;;;7.50;99.90;;;;;;4849624;29;20056;-84
2022/10/11 00:04:46;;;;;;;11.77;3.13;;;7.40;99.90;;;;;;4851872;29;20042;-84
2022/10/11 00:07:11;;;;;;;12.38;3.05;;;7.40;99.90;;;;;;4847330;29;20105;-85
2022/10/11 00:09:37;;;;;;;10.50;3.47;;;7.30;99.90;;;;;;4848263;29;20290;-84
2022/10/11 00:12:03;;;;;;;10.23;2.35;;;7.40;99.90;;;;;;4834232;29;20132;-84
2022/10/11 00:14:29;;;;;;;17.60;2.92;;;7.30;99.90;;;;;;4851153;29;20048;-84
2022/10/11 00:16:54;;;;;;;17.85;3.33;;;7.40;99.90;;;;;;4877750;29;20057;-84
2022/10/11 00:19:20;;;;;;;11.07;2.88;;;7.30;99.90;;;;;;4850107;29;20045;-85
2022/10/11 00:21:46;;;;;;;17.15;3.40;;;7.30;99.90;;;;;;4848000;29;20045;-84
2022/10/11 00:24:16;;;;;;;12.70;2.85;;;7.40;99.90;;;;;;4849993;29;20120;-84
2022/10/11 00:26:42;;;;;;;14.48;3.28;;;7.40;99.90;;;;;;4848052;29;20394;-84
2022/10/11 00:29:08;;;;;;;14.30;2.63;;;7.30;99.90;;;;;;4823315;29;20042;-84
2022/10/11 00:31:33;;;;;;;14.02;3.13;;;7.30;99.90;;;;;;4828739;29;20117;-84
2022/10/11 00:33:59;;;;;;;10.02;3.50;;;7.30;99.90;;;;;;4863982;29;20107;-84
2022/10/11 00:36:25;;;;;;;15.00;2.75;;;7.20;99.90;;;;;;4847931;29;20084;-84
2022/10/11 00:38:51;;;;;;;16.25;3.50;;;7.30;99.90;;;;;;4849072;29;20041;-85
2022/10/11 00:41:20;;;;;;;12.88;3.75;;;7.20;99.90;;;;;;4863936;29;20072;-84
2022/10/11 00:43:45;;;;;;;14.13;2.85;;;7.10;99.90;;;;;;4867674;29;20574;-84
2022/10/11 00:46:17;;;;;;;13.20;2.97;;;7.10;99.90;;;;;;4854493;29;20407;-84
2022/10/11 00:48:52;;;;;;;12.63;2.97;;;7.10;99.90;;;;;;4844536;29;20056;-84
2022/10/11 00:51:30;;;;;;;;;;;7.00;99.90;;;;;;4874869;29;21388;-84
2022/10/11 00:53:55;;;;;;;11.45;2.72;;;7.00;99.90;;;;;;4863998;29;19930;-85
2022/10/11 00:56:34;;;;;;;14.95;2.97;;;7.10;99.90;;;;;;4852878;29;20521;-84
2022/10/11 00:59:03;;;;;;;16.77;3.40;;;7.10;99.90;;;;;;4856639;29;20037;-84
2022/10/11 01:01:29;;;;;;;9.85;2.70;;;7.10;99.90;;;;;;4866914;29;20396;-84
2022/10/11 01:03:55;;;;;;;13.88;3.08;;;7.00;99.90;;;;;;4862547;29;20053;-84
2022/10/11 01:06:24;;;;;;;13.65;3.60;;;7.00;99.90;;;;;;4866487;29;20056;-84
2022/10/11 01:08:51;;;;;;;13.98;3.42;;;7.10;99.90;;;;;;4877824;29;20450;-84
2022/10/11 01:11:21;;;;;;;16.58;3.50;;;7.00;99.90;;;;;;4847407;29;20048;-85
2022/10/11 01:14:10;;;;;;;10.82;2.80;;;7.00;99.90;;;;;;4861914;29;20042;-85
2022/10/11 01:16:58;;;;;;;11.13;2.90;;;7.00;99.90;;;;;;4831995;29;20060;-85
2022/10/11 01:20:00;;;;;;;15.68;3.03;;;7.10;99.90;;;;;;4845562;29;20045;-85
2022/10/11 01:22:45;;;;;;;19.50;2.75;;;7.40;99.90;;;;;;4866010;29;20064;-84
2022/10/11 01:25:16;;;;;;;21.60;3.13;;;7.20;99.90;;;;;;4878696;29;20131;-85
2022/10/11 01:27:56;;;;;;;11.70;2.60;;;7.40;99.90;;;;;;4859626;29;20049;-84
2022/10/11 01:30:28;;;;;;;14.93;3.20;;;7.30;99.90;;;;;;4860955;29;20965;-85
2022/10/11 01:33:11;;;;;;;10.38;2.70;;;7.20;99.90;;;;;;4848272;29;20053;-84
2022/10/11 01:35:48;;;;;;;18.52;3.30;;;7.30;99.90;;;;;;4851742;29;20047;-85
2022/10/11 01:38:39;;;;;;;13.65;2.97;;;7.10;99.90;;;;;;4847631;29;20037;-85
2022/10/11 01:41:30;;;;;;;15.65;3.65;;;7.10;99.90;;;;;;4861368;29;20041;-84
2022/10/11 01:44:00;;;;;;;18.65;2.95;;;7.10;99.90;;;;;;4870205;29;20132;-84
2022/10/11 01:46:28;;;;;;;12.35;2.92;;;7.00;99.90;;;;;;4858996;29;20053;-85
2022/10/11 01:48:56;;;;;;;14.73;3.13;;;7.10;99.90;;;;;;4834509;29;20049;-84
2022/10/11 01:51:28;;;;;;;11.98;2.80;;;7.00;99.90;;;;;;4850150;29;20385;-85
2022/10/11 01:54:31;;;;;;;11.55;3.08;;;7.10;99.90;;;;;;4852201;29;20502;-85
2022/10/11 01:56:59;;;;;;;14.20;3.00;;;7.10;99.90;;;;;;4839789;29;20091;-85
2022/10/11 01:59:28;;;;;;;13.30;2.50;;;6.90;99.90;;;;;;4843734;29;20382;-84
2022/10/11 02:02:09;;;;;;;15.48;3.53;;;6.90;99.90;;;;;;4833618;29;20113;-85
2022/10/11 02:04:39;;;;;;;12.77;2.97;;;7.00;99.90;;;;;;4865896;29;20351;-84
2022/10/11 02:07:26;;;;;;;16.25;2.95;;;7.00;99.90;;;;;;4834965;29;20038;-84
2022/10/11 02:10:02;;;;;;;13.07;3.13;;;7.10;99.90;;;;;;4837223;29;20345;-85
2022/10/11 02:12:35;;;;;;;13.25;3.05;;;7.20;99.90;;;;;;4863439;29;20053;-85
2022/10/11 02:15:02;;;;;;;14.63;2.63;;;7.10;99.90;;;;;;4879384;29;20049;-85
2022/10/11 02:17:34;;;;;;;13.02;2.55;;;7.20;99.90;;;;;;4869278;29;20061;-85
2022/10/11 02:20:05;;;;;;;13.38;2.83;;;7.20;99.90;;;;;;4871157;29;20049;-85
2022/10/11 02:22:35;;;;;;;8.93;2.10;;;7.10;99.90;;;;;;4867628;29;20095;-84
2022/10/11 02:25:05;;;;;;;12.18;2.53;;;7.10;99.90;;;;;;4868730;29;20045;-85
2022/10/11 02:27:34;;;;;;;9.60;2.97;;;7.00;99.90;;;;;;4864317;29;20120;-85
2022/10/11 02:30:02;;;;;;;11.68;2.40;;;6.90;99.90;;;;;;4868595;29;20105;-84
2022/10/11 02:32:30;;;;;;;7.53;2.50;;;6.80;99.90;;;;;;4835370;29;20153;-85
2022/10/11 02:34:59;;;;;;;10.88;2.50;;;6.80;99.90;;;;;;4838666;29;20072;-85
2022/10/11 02:37:49;;;;;;;15.55;2.95;;;6.80;99.90;;;;;;4868238;29;20528;-84
2022/10/11 02:40:22;;;;;;;11.40;2.65;;;6.70;99.90;;;;;;4836546;29;20441;-85
2022/10/11 02:42:53;;;;;;;15.77;2.90;;;6.70;99.90;;;;;;4865435;29;20474;-85
2022/10/11 02:45:26;;;;;;;10.25;2.78;;;6.70;99.90;;;;;;4832277;29;20469;-85
2022/10/11 02:47:52;;;;;;;16.42;3.30;;;6.70;99.90;;;;;;4864386;29;20076;-85
2022/10/11 02:50:18;;;;;;;11.98;2.95;;;6.70;99.90;;;;;;4869982;29;20045;-85
2022/10/11 02:52:43;;;;;;;11.40;2.92;;;6.70;99.90;;;;;;4819486;29;20406;-84
2022/10/11 02:55:10;;;;;;;9.05;2.95;;;6.60;99.90;;;;;;4835459;29;20044;-85
2022/10/11 02:57:36;;;;;;;10.75;2.85;;;6.60;99.90;;;;;;4879024;29;20037;-85
2022/10/11 03:00:02;;;;;;;9.85;2.45;;;6.60;99.90;;;;;;4846122;29;20406;-84
2022/10/11 03:02:28;;;;;;;11.13;2.55;;;6.70;99.90;;;;;;4820625;29;20105;-85
2022/10/11 03:04:53;;;;;;;17.35;3.35;;;6.60;99.90;;;;;;4829183;29;20044;-84
2022/10/11 03:07:19;;;;;;;9.13;3.00;;;6.60;99.90;;;;;;4846555;29;20054;-85
2022/10/11 03:09:45;;;;;;;10.23;2.50;;;6.50;99.90;;;;;;4848111;29;20186;-84
2022/10/11 03:12:10;;;;;;;14.10;2.47;;;6.50;99.90;;;;;;4853364;29;20112;-85
2022/10/11 03:14:36;;;;;;;15.65;2.90;;;6.40;99.90;;;;;;4863667;29;20132;-85
2022/10/11 03:17:02;;;;;;;14.48;3.92;;;6.20;99.90;;;;;;4835991;29;20092;-84
2022/10/11 03:19:30;;;;;;;13.80;2.95;;;6.30;99.90;;;;;;4820002;29;20102;-85
2022/10/11 03:21:56;;;;;;;10.57;2.80;;;6.20;99.90;;;;;;4851294;29;20125;-85
2022/10/11 03:24:21;;;;;;;16.88;3.67;;;6.40;99.90;;;;;;4836653;29;20136;-84
2022/10/11 03:26:47;;;;;;;10.23;2.38;;;6.30;99.90;;;;;;4823046;29;20096;-84
2022/10/11 03:29:13;;;;;;;12.27;2.90;;;6.30;99.90;;;;;;4818855;29;20042;-85
2022/10/11 03:31:38;;;;;;;12.68;2.80;;;6.10;99.90;;;;;;4860799;29;20053;-84
2022/10/11 03:34:04;;;;;;;12.45;2.80;;;6.20;99.90;;;;;;4836177;29;20675;-84
2022/10/11 03:36:30;;;;;;;13.38;2.63;;;6.10;99.90;;;;;;4871579;29;20116;-84
2022/10/11 03:38:56;;;;;;;12.80;2.50;;;6.10;99.90;;;;;;4819794;29;20056;-85
2022/10/11 03:41:21;;;;;;;7.97;2.65;;;6.00;99.90;;;;;;4848385;29;20520;-85
2022/10/11 03:43:47;;;;;;;9.77;2.70;;;6.00;99.90;;;;;;4823814;29;20080;-84
2022/10/11 03:46:14;;;;;;;11.00;2.67;;;6.00;99.90;;;;;;4839292;29;20429;-84
2022/10/11 03:48:39;;;;;;;14.98;2.80;;;6.10;99.90;;;;;;4840378;29;20045;-84
2022/10/11 03:51:05;;;;;;;12.68;3.25;;;6.00;99.90;;;;;;4824087;29;20042;-85
2022/10/11 03:53:31;;;;;;;11.57;2.38;;;5.90;99.90;;;;;;4836565;29;20054;-84
2022/10/11 03:55:56;;;;;;;14.98;2.63;;;6.20;99.90;;;;;;4841246;29;20060;-84
2022/10/11 03:58:22;;;;;;;10.70;2.60;;;6.20;99.90;;;;;;4834987;29;20481;-85
2022/10/11 04:00:48;;;;;;;16.33;2.90;;;6.20;99.90;;;;;;4834182;29;20073;-85
2022/10/11 04:03:15;;;;;;;9.93;2.90;;;6.20;99.90;;;;;;4867422;29;20072;-84
2022/10/11 04:05:40;;;;;;;12.85;2.35;;;6.10;99.90;;;;;;4830279;29;20042;-84
2022/10/11 04:08:06;;;;;;;8.98;2.28;;;6.30;99.90;;;;;;4850111;29;20387;-85
2022/10/11 04:10:31;;;;;;;15.20;2.42;;;6.20;99.90;;;;;;4850674;29;20076;-85
2022/10/11 04:12:57;;;;;;;11.52;2.75;;;6.40;99.90;;;;;;4866827;29;20112;-85
2022/10/11 04:15:23;;;;;;;13.50;2.47;;;6.40;99.90;;;;;;4815768;29;20117;-84
2022/10/11 04:17:51;;;;;;;8.32;2.50;;;6.30;99.90;;;;;;4866721;29;20045;-85
2022/10/11 04:20:17;;;;;;;12.07;2.42;;;6.40;99.90;;;;;;4867122;29;20758;-85
2022/10/11 04:22:43;;;;;;;15.90;2.88;;;6.50;99.90;;;;;;4837479;29;20185;-84
2022/10/11 04:25:09;;;;;;;10.68;2.70;;;6.60;99.90;;;;;;4832234;29;20125;-85
2022/10/11 04:27:37;;;;;;;10.73;2.45;;;6.60;99.90;;;;;;4851754;29;20064;-85
2022/10/11 04:30:03;;;;;;;17.05;3.08;;;6.60;99.90;;;;;;4847375;29;20247;-85
2022/10/11 04:32:30;;;;;;;12.23;2.70;;;6.50;99.90;;;;;;4815815;29;20049;-84
2022/10/11 04:34:55;;;;;;;14.82;3.10;;;6.50;99.90;;;;;;4847264;29;20131;-85
2022/10/11 04:37:21;;;;;;;12.18;2.75;;;6.70;99.90;;;;;;4838154;29;20402;-84
2022/10/11 04:39:46;;;;;;;14.30;3.28;;;6.60;99.90;;;;;;4828776;29;20042;-85
2022/10/11 04:42:12;;;;;;;14.23;2.78;;;6.70;99.90;;;;;;4837429;29;20223;-84
2022/10/11 04:44:38;;;;;;;11.20;2.88;;;6.70;99.90;;;;;;4865240;29;20439;-85
2022/10/11 04:47:04;;;;;;;12.82;2.78;;;6.70;99.90;;;;;;4844020;29;20403;-85
2022/10/11 04:49:29;;;;;;;11.93;3.17;;;6.70;99.90;;;;;;4867622;29;20390;-85
2022/10/11 04:51:55;;;;;;;15.70;3.05;;;6.70;99.90;;;;;;4862277;29;20047;-85
2022/10/11 04:54:21;;;;;;;12.05;2.42;;;6.70;99.90;;;;;;4866336;29;20057;-85
2022/10/11 04:56:47;;;;;;;11.77;2.53;;;6.70;99.90;;;;;;4856138;29;20048;-85
2022/10/11 04:59:12;;;;;;;13.75;2.70;;;6.60;99.90;;;;;;4820916;29;20778;-84
2022/10/11 05:01:38;;;;;;;13.63;3.17;;;6.80;99.90;;;;;;4831185;29;20053;-84
2022/10/11 05:04:04;;;;;;;15.23;2.80;;;6.80;99.90;;;;;;4848045;29;20438;-85
2022/10/11 05:06:30;;;;;;;13.45;2.78;;;6.60;99.90;;;;;;4840071;29;20038;-85
2022/10/11 05:08:55;;;;;;;10.10;2.20;;;6.70;99.90;;;;;;4812578;29;21269;-85
2022/10/11 05:11:21;;;;;;;11.45;2.42;;;6.60;99.90;;;;;;4850731;29;20065;-85
2022/10/11 05:13:47;;;;;;;15.73;2.67;;;6.70;99.90;;;;;;4844477;29;20287;-84
2022/10/11 05:16:15;;;;;;;14.73;3.05;;;6.70;99.90;;;;;;4834117;29;20045;-85
2022/10/11 05:18:41;;;;;;;10.77;2.42;;;6.60;99.90;;;;;;4865368;29;20033;-85
2022/10/11 05:21:13;;;;;;;11.30;2.50;;;6.80;99.90;;;;;;4849445;29;20048;-85
2022/10/11 05:23:39;;;;;;;7.70;2.00;;;6.80;99.90;;;;;;4837099;29;20037;-85
2022/10/11 05:26:04;;;;;;;10.60;1.80;;;6.80;99.90;;;;;;4819796;29;20033;-85
2022/10/11 05:28:30;;;;;;;16.67;2.30;;;6.90;99.90;;;;;;4865982;29;20044;-85
2022/10/11 05:30:56;;;;;;;7.65;1.90;;;6.70;99.90;;;;;;4846241;29;20037;-85
2022/10/11 05:33:22;;;;;;;7.60;1.90;;;6.90;99.90;;;;;;4843900;29;20507;-84
2022/10/11 05:35:48;;;;;;;9.82;1.75;;;6.80;99.90;;;;;;4864284;29;20049;-85
2022/10/11 05:38:14;;;;;;;6.95;1.83;;;6.80;99.90;;;;;;4848388;29;20388;-85
2022/10/11 05:40:40;;;;;;;9.82;1.80;;;6.80;99.90;;;;;;4843231;29;20045;-85
2022/10/11 05:43:05;;;;;;;8.35;2.60;;;6.80;99.90;;;;;;4853106;29;20093;-84
2022/10/11 05:45:35;;;;;;;14.35;2.03;;;6.80;99.90;;;;;;4850861;29;20550;-85
2022/10/11 05:48:01;;;;;;;7.68;2.17;;;6.80;99.90;;;;;;4848436;29;20630;-85
2022/10/11 05:50:27;;;;;;;11.38;1.90;;;6.90;99.90;;;;;;4844324;29;20045;-85
2022/10/11 05:52:52;;;;;;;9.55;2.00;;;6.90;99.90;;;;;;4867869;29;20425;-85
2022/10/11 05:55:18;;;;;;;11.02;2.53;;;6.90;99.90;;;;;;4828982;29;20413;-85
2022/10/11 05:57:44;;;;;;;4.07;1.70;;;7.00;99.90;;;;;;4822063;29;20049;-85
2022/10/11 06:00:10;;;;;;;8.07;1.90;;;6.80;99.90;;;;;;4831438;29;20045;-85
2022/10/11 06:02:35;;;;;;;12.30;2.28;;;7.10;99.90;;;;;;4847815;29;20049;-85
2022/10/11 06:05:01;;;;;;;9.65;1.80;;;6.90;99.90;;;;;;4819082;29;20493;-85
2022/10/11 06:07:27;;;;;;;14.20;2.13;;;7.10;99.90;;;;;;4820150;29;20048;-84
2022/10/11 06:09:53;;;;;;;9.07;2.50;;;7.00;99.90;;;;;;4863929;29;20443;-85
2022/10/11 06:12:20;;;;;;;9.95;1.92;;;6.80;99.90;;;;;;4835908;29;20132;-86
2022/10/11 06:14:46;;;;;;;11.10;2.67;;;6.90;99.90;;;;;;4848829;29;20101;-84
2022/10/11 06:17:11;;;;;;;9.25;2.30;;;6.80;99.90;;;;;;4861507;29;20053;-85
2022/10/11 06:19:37;;;;;;;18.92;2.47;;;6.80;99.90;;;;;;4830908;29;20132;-86
2022/10/11 06:22:03;;;;;;;7.60;1.70;;;6.80;99.90;;;;;;4839109;29;20100;-85
2022/10/11 06:24:28;;;;;;;14.73;2.50;;;7.00;99.90;;;;;;4863035;29;20125;-85
2022/10/11 06:26:54;;;;;;;12.30;2.10;;;7.00;99.90;;;;;;4834382;29;20441;-86
2022/10/11 06:29:20;;;;;;;12.40;2.10;;;7.00;99.90;;;;;;4868262;29;20041;-85
2022/10/11 06:31:47;;;;;;;12.68;2.20;;;6.90;99.90;;;;;;4848546;29;20045;-85
2022/10/11 06:34:14;;;;;;;9.90;2.40;;;6.90;99.90;;;;;;4852682;29;20133;-85
2022/10/11 06:36:39;;;;;;;8.30;2.00;;;6.90;99.90;;;;;;4863935;29;20048;-85
2022/10/11 06:39:06;;;;;;;11.35;1.92;;;7.00;99.90;;;;;;4833720;29;20042;-85
2022/10/11 06:41:32;;;;;;;13.95;2.30;;;7.10;99.90;;;;;;4832572;29;20297;-85
2022/10/11 06:43:58;;;;;;;8.30;2.10;;;7.00;99.90;;;;;;4853126;29;20478;-85
2022/10/11 06:46:26;;;;;;;9.57;2.40;;;7.10;99.90;;;;;;4860071;29;20440;-85
2022/10/11 06:48:53;;;;;;;12.07;2.45;;;7.30;99.90;;;;;;4864255;29;20484;-86
2022/10/11 06:51:20;;;;;;;8.10;2.13;;;7.30;99.90;;;;;;4871026;29;20056;-84
2022/10/11 06:53:50;;;;;;;9.82;2.38;;;7.40;99.90;;;;;;4814576;29;20061;-85
2022/10/11 06:56:17;;;;;;;11.77;3.40;;;7.40;99.90;;;;;;4850518;29;20565;-86
2022/10/11 06:58:43;;;;;;;12.90;2.38;;;7.50;99.90;;;;;;4841679;29;20275;-85
2022/10/11 07:01:15;;;;;;;7.90;2.35;;;7.60;99.90;;;;;;4848182;29;20050;-85
2022/10/11 07:03:47;;;;;;;9.07;2.40;;;7.60;99.90;;;;;;4840469;29;20133;-85
2022/10/11 07:06:19;;;;;;;10.48;3.03;;;7.60;99.90;;;;;;4819923;29;20045;-85
2022/10/11 07:08:48;;;;;;;9.45;2.35;;;7.70;99.90;;;;;;4844416;29;20412;-85
2022/10/11 07:11:16;;;;;;;10.02;2.53;;;7.90;99.90;;;;;;4849768;29;20412;-85
2022/10/11 07:13:47;;;;;;;9.80;2.13;;;8.00;99.90;;;;;;4849849;29;20053;-85
2022/10/11 07:16:12;;;;;;;9.43;2.22;;;8.10;99.90;;;;;;4841844;29;20053;-85
2022/10/11 07:18:38;;;;;;;7.38;2.25;;;8.00;99.90;;;;;;4852880;29;20042;-86
2022/10/11 07:21:06;;;;;;;9.20;2.10;;;8.20;99.90;;;;;;4835361;29;20502;-86
2022/10/11 07:23:32;;;;;;;11.25;1.95;;;8.20;99.90;;;;;;4853712;29;20072;-85
2022/10/11 07:25:58;;;;;;;11.25;2.35;;;8.40;99.90;;;;;;4864845;29;20490;-84
2022/10/11 07:28:36;;;;;;;12.10;2.60;;;8.30;99.90;;;;;;4871177;29;20124;-84
2022/10/11 07:31:23;;;;;;;9.65;1.90;;;8.40;99.90;;;;;;4848760;29;20084;-84
2022/10/11 07:33:48;;;;;;;6.22;2.10;;;8.60;99.90;;;;;;4863236;29;20525;-83
2022/10/11 07:36:15;;;;;;;10.60;2.30;;;8.60;99.90;;;;;;4833931;29;20503;-84
2022/10/11 07:38:43;;;;;;;11.65;2.00;;;8.70;99.90;;;;;;4846676;29;20088;-84
2022/10/11 07:41:09;;;;;;;11.90;3.00;;;8.80;99.90;;;;;;4880123;29;20152;-84
2022/10/11 07:43:36;;;;;;;9.57;2.30;;;9.00;99.90;;;;;;4869925;29;20437;-84
2022/10/11 07:46:02;;;;;;;9.18;1.85;;;9.00;99.90;;;;;;4821468;29;20481;-84
2022/10/11 07:48:35;;;;;;;7.53;1.73;;;9.10;99.90;;;;;;4834812;29;20105;-84
2022/10/11 07:51:08;;;;;;;6.70;2.05;;;9.20;99.90;;;;;;4865450;29;20073;-84
2022/10/11 07:53:38;;;;;;;9.73;2.03;;;9.30;99.90;;;;;;4863351;29;20463;-84
2022/10/11 07:56:04;;;;;;;9.65;1.88;;;9.40;99.90;;;;;;4862637;29;20164;-84
2022/10/11 07:58:30;;;;;;;9.68;2.00;;;9.50;99.90;;;;;;4828080;29;20171;-83
2022/10/11 08:00:55;;;;;;;11.07;2.10;;;9.60;99.90;;;;;;4875970;29;20464;-84
2022/10/11 08:03:21;;;;;;;8.93;2.13;;;9.50;99.90;;;;;;4833259;29;20128;-83
2022/10/11 08:05:47;;;;;;;13.63;2.10;;;9.70;99.90;;;;;;4837293;29;20259;-84
2022/10/11 08:08:12;;;;;;;13.77;2.53;;;9.70;99.90;;;;;;4821079;29;20121;-84
2022/10/11 08:10:42;;;;;;;6.00;2.03;;;9.80;99.90;;;;;;4835229;29;20369;-84
2022/10/11 08:13:10;;;;;;;9.40;1.90;;;10.00;99.90;;;;;;4852766;29;20041;-84
2022/10/11 08:15:36;;;;;;;8.98;2.35;;;10.10;99.90;;;;;;4852757;29;20617;-84
2022/10/11 08:18:02;;;;;;;10.55;2.70;;;10.10;99.90;;;;;;4863584;29;20137;-84
2022/10/11 08:20:29;;;;;;;11.55;1.90;;;10.30;99.90;;;;;;4868236;29;20068;-84
2022/10/11 08:22:55;;;;;;;8.77;2.30;;;10.30;99.90;;;;;;4847003;29;20457;-84
2022/10/11 08:25:21;;;;;;;8.10;2.10;;;10.50;99.90;;;;;;4848262;29;20109;-84
2022/10/11 08:27:46;;;;;;;9.00;2.03;;;10.70;99.90;;;;;;4879194;29;20113;-83
2022/10/11 08:30:12;;;;;;;13.77;3.15;;;10.80;99.90;;;;;;4847539;29;20533;-84
2022/10/11 08:32:38;;;;;;;11.48;2.08;;;10.80;99.90;;;;;;4868223;29;20047;-85
2022/10/11 08:35:05;;;;;;;8.82;1.92;;;11.00;99.90;;;;;;4832629;29;20041;-84
2022/10/11 08:37:30;;;;;;;7.95;1.88;;;11.00;99.90;;;;;;4851711;29;20145;-83
2022/10/11 08:39:56;;;;;;;11.07;2.20;;;11.10;99.90;;;;;;4814715;29;20181;-84
2022/10/11 08:42:42;;;;;;;7.10;1.92;;;11.30;99.90;;;;;;4850058;29;20084;-84
2022/10/11 08:45:21;;;;;;;11.77;1.90;;;11.40;99.90;;;;;;4848164;29;20048;-84
2022/10/11 08:47:46;;;;;;;8.63;1.90;;;11.50;99.90;;;;;;4848720;29;20053;-84
2022/10/11 08:50:22;;;;;;;10.95;2.17;;;11.60;99.90;;;;;;4849518;29;20509;-84
2022/10/11 08:52:51;;;;;;;11.70;1.92;;;11.70;99.90;;;;;;4869369;29;20048;-84
2022/10/11 08:55:55;;;;;;;6.88;1.73;;;11.80;99.90;;;;;;4863944;29;20051;-85
2022/10/11 08:58:32;;;;;;;8.48;1.60;;;11.90;99.90;;;;;;4814330;29;20116;-84
2022/10/11 09:00:59;;;;;;;10.35;2.60;;;12.10;99.90;;;;;;4839375;29;20598;-84
2022/10/11 09:03:39;;;;;;;9.30;1.90;;;12.20;99.90;;;;;;4830651;29;20046;-84
2022/10/11 09:06:05;;;;;;;8.68;1.83;;;12.30;99.90;;;;;;4863945;29;20041;-84
2022/10/11 09:09:02;;;;;;;8.65;1.90;;;12.40;99.90;;;;;;4832375;29;20034;-84
2022/10/11 09:11:51;;;;;;;8.05;1.88;;;12.50;99.90;;;;;;4845325;29;20678;-84
2022/10/11 09:14:39;;;;;;;7.55;1.90;;;12.70;99.90;;;;;;4811171;29;20050;-85
2022/10/11 09:17:24;;;;;;;11.80;2.25;;;12.90;99.90;;;;;;4850250;29;20090;-84
2022/10/11 09:20:22;;;;;;;7.63;1.70;;;13.10;99.90;;;;;;4863318;29;20498;-85
2022/10/11 09:23:23;;;;;;;11.65;2.13;;;13.20;99.90;;;;;;4866305;29;20120;-84
2022/10/11 09:26:16;;;;;;;9.85;1.90;;;13.20;99.90;;;;;;4830866;29;20050;-84
2022/10/11 09:29:04;;;;;;;8.45;1.95;;;13.50;99.90;;;;;;4826522;29;20049;-84
2022/10/11 09:31:31;;;;;;;9.75;2.60;;;13.70;99.90;;;;;;4845459;29;20057;-85
2022/10/11 09:33:59;;;;;;;9.18;2.20;;;13.90;99.90;;;;;;4868029;29;20117;-85
2022/10/11 09:36:59;;;;;;;11.20;2.53;;;14.00;99.90;;;;;;4865295;29;20056;-84
2022/10/11 09:39:30;;;;;;;12.80;2.22;;;14.20;99.90;;;;;;4849447;29;20089;-85
2022/10/11 09:42:02;;;;;;;13.52;2.15;;;14.30;99.90;;;;;;4854252;29;20437;-85
2022/10/11 09:44:44;;;;;;;8.85;2.13;;;14.40;99.90;;;;;;4849836;29;20067;-85
2022/10/11 09:47:15;;;;;;;10.07;1.95;;;14.30;1.00;;;;;;4847592;29;20394;-84
2022/10/11 09:50:04;;;;;;;9.52;2.30;;;14.40;99.90;;;;;;4841390;29;20427;-84
2022/10/11 09:52:33;;;;;;;13.10;2.15;;;14.60;1.00;;;;;;4858953;29;20300;-84
2022/10/11 09:55:00;;;;;;;11.80;2.47;;;14.70;99.90;;;;;;4832740;29;20041;-85
2022/10/11 09:57:41;;;;;;;7.32;2.08;;;14.70;99.90;;;;;;4866454;29;20042;-85
2022/10/11 10:00:10;;;;;;;14.80;2.20;;;14.70;99.90;;;;;;4865266;29;20061;-85
2022/10/11 10:02:43;;;;;;;10.25;2.25;;;14.80;99.90;;;;;;4861558;29;20052;-85
2022/10/11 10:05:09;;;;;;;12.07;2.05;;;14.90;99.90;;;;;;4836680;29;20048;-84
2022/10/11 10:07:39;;;;;;;9.55;2.10;;;15.00;99.90;;;;;;4833671;29;20353;-84
2022/10/11 10:10:44;;;;;;;8.75;2.13;;;15.00;56.90;;;;;;4845709;29;20109;-85
2022/10/11 10:13:27;;;;;;;10.30;2.72;;;15.20;99.90;;;;;;4847342;29;20124;-84
2022/10/11 10:15:57;;;;;;;9.43;2.35;;;15.20;1.00;;;;;;4850863;29;20057;-85
2022/10/11 10:18:33;;;;;;;7.95;1.92;;;15.10;99.90;;;;;;4816195;29;20046;-85
2022/10/11 10:20:59;;;;;;;9.25;2.00;;;15.10;99.90;;;;;;4815646;29;20042;-84
2022/10/11 10:23:31;;;;;;;12.45;2.53;;;15.00;99.90;;;;;;4802837;29;20046;-84
2022/10/11 10:26:14;;;;;;;8.98;1.90;;;15.20;99.90;;;;;;4848062;29;20069;-84
2022/10/11 10:28:56;;;;;;;11.20;2.05;;;15.10;1.00;;;;;;4836636;29;20485;-84
2022/10/11 10:31:24;;;;;;;7.55;1.80;;;14.90;99.90;;;;;;4819350;29;20648;-84
2022/10/11 10:33:54;;;;;;;9.07;1.83;;;15.00;99.90;;;;;;4829627;29;20084;-84
2022/10/11 10:36:28;;;;;;;10.60;2.03;;;15.10;99.90;;;;;;4806687;29;20528;-84
2022/10/11 10:39:20;;;;;;;7.95;1.83;;;15.10;7.70;;;;;;4840411;29;20291;-84
2022/10/11 10:41:46;;;;;;;9.07;1.98;;;15.10;99.90;;;;;;4836805;29;20267;-84
2022/10/11 10:44:16;;;;;;;11.82;2.22;;;15.30;1.00;;;;;;4807185;29;20132;-84
2022/10/11 10:47:18;;;;;;;10.18;2.17;;;14.90;1.00;;;;;;4852185;29;20619;-84
2022/10/11 10:50:06;;;;;;;15.63;2.28;;;14.90;99.90;;;;;;4816366;29;20052;-83
2022/10/11 10:52:51;;;;;;;10.32;1.85;;;15.10;99.90;;;;;;4848595;29;20049;-84
2022/10/11 10:55:32;;;;;;;;;;;15.30;1.00;;;;;;4832225;29;20041;-84
2022/10/11 10:58:27;;;;;;;8.43;1.58;;;15.50;99.90;;;;;;4852546;29;19925;-84
2022/10/11 11:00:58;;;;;;;7.20;1.60;;;15.70;99.90;;;;;;4816345;29;20093;-84
2022/10/11 11:03:33;;;;;;;7.85;1.98;;;15.70;96.50;;;;;;4849849;29;20073;-84
2022/10/11 11:05:59;;;;;;;6.30;1.67;;;15.90;62.90;;;;;;4848299;29;20045;-84
2022/10/11 11:08:55;;;;;;;8.10;1.95;;;16.30;20.90;;;;;;4861756;29;20485;-84
2022/10/11 11:11:29;;;;;;;9.68;1.60;;;16.40;1.00;;;;;;4842441;29;20064;-84
2022/10/11 11:14:09;;;;;;;9.95;2.28;;;16.30;99.90;;;;;;4851536;29;20046;-84
2022/10/11 11:16:54;;;;;;;10.30;1.92;;;16.40;70.60;;;;;;4830947;29;20054;-84
2022/10/11 11:19:50;;;;;;;7.97;1.88;;;15.90;74.60;;;;;;4851069;29;20081;-84
2022/10/11 11:22:41;;;;;;;11.18;2.53;;;15.90;99.90;;;;;;4862619;29;20109;-84
2022/10/11 11:25:15;;;;;;;5.70;1.30;;;16.30;99.90;;;;;;4832437;29;20046;-84
2022/10/11 11:28:04;;;;;;;8.70;1.80;;;16.20;1.00;;;;;;4831350;29;20629;-84
2022/10/11 11:30:54;;;;;;;7.55;1.75;;;16.60;1.00;;;;;;4863069;29;20045;-83
2022/10/11 11:33:51;;;;;;;10.50;1.90;;;16.60;1.00;;;;;;4859822;29;20514;-84
2022/10/11 11:36:46;;;;;;;9.02;1.63;;;16.60;1.00;;;;;;4861622;29;20529;-85
2022/10/11 11:39:21;;;;;;;5.10;1.42;;;16.90;1.00;;;;;;4850678;29;20054;-84
2022/10/11 11:41:50;;;;;;;;;;;17.10;99.90;;;;;;4847383;29;20038;-84
2022/10/11 11:44:27;;;;;;;7.95;1.65;;;17.20;99.90;;;;;;4862839;29;19920;-84
2022/10/11 11:47:07;;;;;;;7.88;1.75;;;17.60;1.00;;;;;;4844787;29;20323;-85
2022/10/11 11:49:41;;;;;;;8.73;1.80;;;17.50;99.90;;;;;;4871880;29;20049;-84
2022/10/11 11:52:16;;;;;;;8.80;1.63;;;17.40;99.90;;;;;;4818472;29;20046;-84
2022/10/11 11:54:57;;;;;;;10.82;3.50;;;17.40;99.90;;;;;;4832184;29;20105;-84
2022/10/11 11:57:36;;;;;;;10.52;2.10;;;17.60;99.90;;;;;;4849105;29;20652;-84
2022/10/11 12:00:13;;;;;;;5.65;1.40;;;17.30;99.90;;;;;;4852179;29;20857;-84
2022/10/11 12:02:42;;;;;;;9.55;1.90;;;17.30;99.90;;;;;;4849614;29;20570;-84
2022/10/11 12:05:10;;;;;;;4.85;1.45;;;17.10;99.90;;;;;;4846844;29;20577;-84
2022/10/11 12:08:07;;;;;;;7.38;1.73;;;17.60;99.90;;;;;;4854582;29;20113;-84
2022/10/11 12:10:53;;;;;;;7.03;1.70;;;17.40;99.90;;;;;;4840897;29;20382;-84
2022/10/11 12:13:33;;;;;;;10.18;1.90;;;17.50;99.90;;;;;;4839156;29;20049;-84
2022/10/11 12:16:11;;;;;;;8.48;1.70;;;17.50;99.90;;;;;;4847078;29;20049;-84
2022/10/11 12:19:13;;;;;;;7.13;1.40;;;18.00;99.90;;;;;;4842764;29;20050;-84
2022/10/11 12:26:10;;;;;;;7.30;1.90;;;16.80;99.90;;;;;;4832770;29;20049;-84
2022/10/11 12:29:33;;;;;;;9.25;1.85;;;16.80;99.90;;;;;;4852666;29;20097;-84
2022/10/11 12:35:32;;;;;;;6.18;1.33;;;16.50;99.90;;;;;;4797953;29;20423;-84
2022/10/11 12:38:17;;;;;;;6.25;1.45;;;16.10;36.60;;;;;;4810477;29;20038;-83
2022/10/11 12:40:45;;;;;;;4.82;1.60;;;16.90;73.50;;;;;;4826771;29;20576;-83
2022/10/11 12:43:53;;;;;;;11.10;1.50;;;17.40;88.40;;;;;;4812042;29;20654;-83
2022/10/11 12:47:10;;;;;;;11.80;2.67;;;17.20;14.30;;;;;;4781028;29;20137;-84
2022/10/11 12:50:48;;;;;;;9.43;2.03;;;16.90;65.30;;;;;;4771853;30;20129;-83
2022/10/11 12:53:17;;;;;;;11.65;2.63;;;16.90;91.30;;;;;;4760684;30;20538;-83
2022/10/11 12:55:59;;;;;;;9.43;1.55;;;17.20;51.40;;;;;;4799773;29;20542;-84
2022/10/11 12:58:26;;;;;;;3.88;1.40;;;17.20;50.70;;;;;;4814258;29;20483;-84
2022/10/11 13:00:53;;;;;;;7.68;1.73;;;17.10;1.00;;;;;;4806695;29;20567;-83
2022/10/11 13:03:33;;;;;;;7.43;1.50;;;17.00;1.00;;;;;;4819023;29;20056;-84
2022/10/11 13:06:07;;;;;;;7.85;1.88;;;16.50;1.00;;;;;;4828664;29;20042;-83
2022/10/11 13:08:37;;;;;;;6.53;1.48;;;16.30;99.90;;;;;;4831570;29;20043;-84
2022/10/11 13:11:07;;;;;;;6.00;1.70;;;16.20;95.50;;;;;;4861468;29;20073;-83
2022/10/11 13:13:53;;;;;;;7.93;1.75;;;16.30;75.20;;;;;;4846582;29;20132;-84
2022/10/11 13:16:24;;;;;;;6.15;1.48;;;16.40;99.90;;;;;;4843171;29;20073;-83
2022/10/11 13:18:55;;;;;;;7.25;1.70;;;16.50;99.90;;;;;;4854559;29;20121;-83
2022/10/11 13:21:35;;;;;;;7.07;2.10;;;16.20;99.90;;;;;;4860427;29;20129;-83
2022/10/11 13:24:05;;;;;;;7.15;1.42;;;16.00;99.90;;;;;;4846152;29;20077;-83